الصفحة الرئيسية
METAR-TAF:

METAR-TAF

مطار :

Mudgee, أستراليا

دائرة عرض: 32-33-45S, خط طول: 149-36-40E, ارتفاع: 471 متر

مراقبة الطقس الحالي

تاريخ ووقت الإصدار 1ساعة و 8 دقيقة قبل الساعة 21:00UTC
ريح 4 عقدة من الشمال
درجة الحرارة 8°درجة مئوية
الرطوبة 100%
ضغط 1021 hPa
الرؤية 10 كم أو أكثر
ملبد بالغيوم على ارتفاع 3200 قدم

METAR: YMDG 252100Z AUTO 01004KT 9999 // OVC032 08/08 Q1021

زمن: 08:08 (22:08 UTC)


TAF: مفقودة

أرصاد الطقس والتوقعات من أكثر من 4000 مطار (تقارير الطقس للمطار METAR والتنبؤ بالطقس بالمطارTAF).

المحطات المتاحة هي النقط الصفراء والحمراء على الخريطة.

حرك المؤشر فوق النقطة لمعرفة اسم المحطة.

ثم انقر لمعرفة أرصاد وتوقعات الطقس.

لتغيير الخارطة: اضغط على الأزرار الخضراء مع رمز الصليب الأسود للتكبير. على الزر الأخضر مع شرطة للتصغير، أو على الأسهم الخضراء للخرائط المجاورة.


METAR-TAF: